sensor_id;sensor_type;location;lat;lon;timestamp;noise_LAeq;noise_LA_min;noise_LA_max;noise_LA01;noise_LA95
43938;Laerm;71382;47.750;10.226;2023-11-22T00:02:17;33.98;32.49;36.19;;
43938;Laerm;71382;47.750;10.226;2023-11-22T00:04:43;34.64;32.75;48.00;;
43938;Laerm;71382;47.750;10.226;2023-11-22T00:07:09;34.50;32.50;47.80;;
43938;Laerm;71382;47.750;10.226;2023-11-22T00:09:34;33.84;32.16;38.50;;
43938;Laerm;71382;47.750;10.226;2023-11-22T00:12:00;33.98;32.64;37.08;;
43938;Laerm;71382;47.750;10.226;2023-11-22T00:14:26;34.22;32.43;36.37;;
43938;Laerm;71382;47.750;10.226;2023-11-22T00:16:52;34.75;32.51;48.98;;
43938;Laerm;71382;47.750;10.226;2023-11-22T00:19:18;33.89;32.45;36.54;;
43938;Laerm;71382;47.750;10.226;2023-11-22T00:21:47;33.85;32.41;38.88;;
43938;Laerm;71382;47.750;10.226;2023-11-22T00:24:13;33.90;32.36;36.24;;
43938;Laerm;71382;47.750;10.226;2023-11-22T00:26:39;34.18;32.90;36.41;;
43938;Laerm;71382;47.750;10.226;2023-11-22T00:29:04;33.88;32.73;35.22;;
43938;Laerm;71382;47.750;10.226;2023-11-22T00:31:30;33.92;32.43;35.52;;
43938;Laerm;71382;47.750;10.226;2023-11-22T00:33:56;33.67;32.41;36.03;;
43938;Laerm;71382;47.750;10.226;2023-11-22T00:36:22;33.62;32.26;37.18;;
43938;Laerm;71382;47.750;10.226;2023-11-22T00:38:47;33.70;32.20;34.90;;
43938;Laerm;71382;47.750;10.226;2023-11-22T00:41:13;33.66;32.27;35.12;;
43938;Laerm;71382;47.750;10.226;2023-11-22T00:43:40;33.80;32.40;35.85;;
43938;Laerm;71382;47.750;10.226;2023-11-22T00:46:05;33.86;32.59;35.81;;
43938;Laerm;71382;47.750;10.226;2023-11-22T00:48:31;33.89;32.36;40.13;;
43938;Laerm;71382;47.750;10.226;2023-11-22T00:50:57;33.50;32.34;34.96;;
43938;Laerm;71382;47.750;10.226;2023-11-22T00:53:23;33.50;32.22;36.03;;
43938;Laerm;71382;47.750;10.226;2023-11-22T00:55:48;33.60;32.36;36.33;;
43938;Laerm;71382;47.750;10.226;2023-11-22T00:58:14;33.30;32.04;35.05;;
43938;Laerm;71382;47.750;10.226;2023-11-22T01:00:40;33.32;31.98;34.61;;
43938;Laerm;71382;47.750;10.226;2023-11-22T01:03:06;33.26;32.23;34.28;;
43938;Laerm;71382;47.750;10.226;2023-11-22T01:05:34;33.38;32.00;34.57;;
43938;Laerm;71382;47.750;10.226;2023-11-22T01:07:59;33.17;32.02;34.52;;
43938;Laerm;71382;47.750;10.226;2023-11-22T01:10:25;33.27;31.98;34.59;;
43938;Laerm;71382;47.750;10.226;2023-11-22T01:12:51;33.85;32.16;45.54;;
43938;Laerm;71382;47.750;10.226;2023-11-22T01:15:17;41.44;33.62;44.00;;
43938;Laerm;71382;47.750;10.226;2023-11-22T01:17:42;36.27;32.58;47.84;;
43938;Laerm;71382;47.750;10.226;2023-11-22T01:20:08;33.49;32.33;38.05;;
43938;Laerm;71382;47.750;10.226;2023-11-22T01:22:36;34.04;32.36;42.14;;
43938;Laerm;71382;47.750;10.226;2023-11-22T01:25:03;33.21;32.44;34.70;;
43938;Laerm;71382;47.750;10.226;2023-11-22T01:27:29;33.30;30.47;40.43;;
43938;Laerm;71382;47.750;10.226;2023-11-22T01:29:55;35.86;30.30;53.24;;
43938;Laerm;71382;47.750;10.226;2023-11-22T01:32:21;31.06;30.38;31.97;;
43938;Laerm;71382;47.750;10.226;2023-11-22T01:34:46;30.93;30.30;31.49;;
43938;Laerm;71382;47.750;10.226;2023-11-22T01:37:12;30.99;30.22;31.72;;
43938;Laerm;71382;47.750;10.226;2023-11-22T01:39:41;31.03;30.40;31.71;;
43938;Laerm;71382;47.750;10.226;2023-11-22T01:42:07;30.94;30.32;31.58;;
43938;Laerm;71382;47.750;10.226;2023-11-22T01:44:32;30.93;30.23;31.58;;
43938;Laerm;71382;47.750;10.226;2023-11-22T01:46:58;31.05;30.34;31.80;;
43938;Laerm;71382;47.750;10.226;2023-11-22T01:49:24;31.00;30.26;31.74;;
43938;Laerm;71382;47.750;10.226;2023-11-22T01:51:49;31.00;30.28;31.85;;
43938;Laerm;71382;47.750;10.226;2023-11-22T01:54:15;31.02;30.27;32.08;;
43938;Laerm;71382;47.750;10.226;2023-11-22T01:56:44;30.99;30.02;32.07;;
43938;Laerm;71382;47.750;10.226;2023-11-22T01:59:10;35.37;30.34;47.87;;
43938;Laerm;71382;47.750;10.226;2023-11-22T02:01:35;30.98;30.18;31.84;;
43938;Laerm;71382;47.750;10.226;2023-11-22T02:04:02;31.03;30.28;31.95;;
43938;Laerm;71382;47.750;10.226;2023-11-22T02:06:28;31.40;30.21;36.73;;
43938;Laerm;71382;47.750;10.226;2023-11-22T02:08:58;30.95;30.18;31.86;;
43938;Laerm;71382;47.750;10.226;2023-11-22T02:11:23;31.03;30.34;33.87;;
43938;Laerm;71382;47.750;10.226;2023-11-22T02:13:49;31.02;30.13;33.32;;
43938;Laerm;71382;47.750;10.226;2023-11-22T02:16:15;30.98;30.17;34.59;;
43938;Laerm;71382;47.750;10.226;2023-11-22T02:18:43;30.99;30.03;31.69;;
43938;Laerm;71382;47.750;10.226;2023-11-22T02:21:08;31.23;30.07;32.71;;
43938;Laerm;71382;47.750;10.226;2023-11-22T02:23:34;31.76;30.63;35.52;;
43938;Laerm;71382;47.750;10.226;2023-11-22T02:26:00;31.72;30.70;37.82;;
43938;Laerm;71382;47.750;10.226;2023-11-22T02:28:26;32.07;30.74;38.40;;
43938;Laerm;71382;47.750;10.226;2023-11-22T02:30:51;31.86;31.00;34.63;;
43938;Laerm;71382;47.750;10.226;2023-11-22T02:33:17;31.83;30.90;32.85;;
43938;Laerm;71382;47.750;10.226;2023-11-22T02:35:42;31.50;30.75;32.50;;
43938;Laerm;71382;47.750;10.226;2023-11-22T02:38:08;31.33;30.53;32.45;;
43938;Laerm;71382;47.750;10.226;2023-11-22T02:40:33;31.50;30.50;35.43;;
43938;Laerm;71382;47.750;10.226;2023-11-22T02:42:59;45.76;30.51;60.83;;
43938;Laerm;71382;47.750;10.226;2023-11-22T02:45:30;31.17;30.55;31.79;;
43938;Laerm;71382;47.750;10.226;2023-11-22T02:47:56;36.36;30.46;49.48;;
43938;Laerm;71382;47.750;10.226;2023-11-22T02:50:21;31.16;30.47;31.81;;
43938;Laerm;71382;47.750;10.226;2023-11-22T02:52:47;31.13;30.31;32.25;;
43938;Laerm;71382;47.750;10.226;2023-11-22T02:55:13;31.14;30.48;31.78;;
43938;Laerm;71382;47.750;10.226;2023-11-22T02:57:40;31.23;30.39;31.88;;
43938;Laerm;71382;47.750;10.226;2023-11-22T03:00:06;31.13;30.41;31.86;;
43938;Laerm;71382;47.750;10.226;2023-11-22T03:02:33;34.87;30.42;47.83;;
43938;Laerm;71382;47.750;10.226;2023-11-22T03:04:58;31.14;30.34;31.76;;
43938;Laerm;71382;47.750;10.226;2023-11-22T03:07:27;31.20;30.36;32.03;;
43938;Laerm;71382;47.750;10.226;2023-11-22T03:09:53;31.10;30.39;36.33;;
43938;Laerm;71382;47.750;10.226;2023-11-22T03:12:19;31.10;30.27;31.75;;
43938;Laerm;71382;47.750;10.226;2023-11-22T03:14:45;31.12;30.34;31.80;;
43938;Laerm;71382;47.750;10.226;2023-11-22T03:17:11;31.07;30.30;31.76;;
43938;Laerm;71382;47.750;10.226;2023-11-22T03:19:38;31.84;30.36;39.77;;
43938;Laerm;71382;47.750;10.226;2023-11-22T03:22:05;32.69;30.48;52.31;;
43938;Laerm;71382;47.750;10.226;2023-11-22T03:24:32;31.11;30.35;34.51;;
43938;Laerm;71382;47.750;10.226;2023-11-22T03:27:02;37.41;30.40;48.79;;
43938;Laerm;71382;47.750;10.226;2023-11-22T03:29:28;31.06;30.21;32.81;;
43938;Laerm;71382;47.750;10.226;2023-11-22T03:31:54;30.99;30.28;31.67;;
43938;Laerm;71382;47.750;10.226;2023-11-22T03:34:20;36.53;30.18;49.99;;
43938;Laerm;71382;47.750;10.226;2023-11-22T03:36:45;35.09;30.43;47.67;;
43938;Laerm;71382;47.750;10.226;2023-11-22T03:39:11;36.84;30.19;51.76;;
43938;Laerm;71382;47.750;10.226;2023-11-22T03:41:36;34.54;30.39;43.29;;
43938;Laerm;71382;47.750;10.226;2023-11-22T03:44:05;32.70;30.27;41.74;;
43938;Laerm;71382;47.750;10.226;2023-11-22T03:46:37;31.29;30.54;32.59;;
43938;Laerm;71382;47.750;10.226;2023-11-22T03:49:03;31.76;30.46;43.05;;
43938;Laerm;71382;47.750;10.226;2023-11-22T03:51:29;37.63;30.53;52.20;;
43938;Laerm;71382;47.750;10.226;2023-11-22T03:53:54;32.85;30.74;40.18;;
43938;Laerm;71382;47.750;10.226;2023-11-22T03:56:20;37.46;30.99;48.25;;
43938;Laerm;71382;47.750;10.226;2023-11-22T03:58:46;39.13;30.96;50.27;;
43938;Laerm;71382;47.750;10.226;2023-11-22T04:01:12;32.65;30.92;46.55;;
43938;Laerm;71382;47.750;10.226;2023-11-22T04:03:37;35.19;30.68;47.67;;
43938;Laerm;71382;47.750;10.226;2023-11-22T04:06:03;35.66;31.11;48.88;;
43938;Laerm;71382;47.750;10.226;2023-11-22T04:08:29;38.58;31.52;51.81;;
43938;Laerm;71382;47.750;10.226;2023-11-22T04:10:54;38.79;31.11;51.88;;
43938;Laerm;71382;47.750;10.226;2023-11-22T04:13:20;41.96;31.23;55.33;;
43938;Laerm;71382;47.750;10.226;2023-11-22T04:15:46;39.42;31.69;48.97;;
43938;Laerm;71382;47.750;10.226;2023-11-22T04:18:11;38.07;31.66;52.37;;
43938;Laerm;71382;47.750;10.226;2023-11-22T04:20:37;37.15;32.20;49.20;;
43938;Laerm;71382;47.750;10.226;2023-11-22T04:23:02;37.93;32.20;51.79;;
43938;Laerm;71382;47.750;10.226;2023-11-22T04:25:28;37.42;33.36;50.78;;
43938;Laerm;71382;47.750;10.226;2023-11-22T04:27:54;34.07;33.02;35.80;;
43938;Laerm;71382;47.750;10.226;2023-11-22T04:30:20;39.63;31.90;51.31;;
43938;Laerm;71382;47.750;10.226;2023-11-22T04:32:45;32.55;31.43;34.09;;
43938;Laerm;71382;47.750;10.226;2023-11-22T04:35:12;39.99;31.67;53.09;;
43938;Laerm;71382;47.750;10.226;2023-11-22T04:37:38;41.67;31.71;55.31;;
43938;Laerm;71382;47.750;10.226;2023-11-22T04:40:04;42.10;31.85;58.24;;
43938;Laerm;71382;47.750;10.226;2023-11-22T04:42:36;42.37;32.32;56.28;;
43938;Laerm;71382;47.750;10.226;2023-11-22T04:45:05;41.61;32.54;57.61;;
43938;Laerm;71382;47.750;10.226;2023-11-22T04:47:31;40.06;32.27;54.58;;
43938;Laerm;71382;47.750;10.226;2023-11-22T04:49:57;41.90;31.98;54.67;;
43938;Laerm;71382;47.750;10.226;2023-11-22T04:52:23;42.83;32.35;57.12;;
43938;Laerm;71382;47.750;10.226;2023-11-22T04:54:48;38.97;32.36;58.93;;
43938;Laerm;71382;47.750;10.226;2023-11-22T04:57:14;42.40;34.23;54.34;;
43938;Laerm;71382;47.750;10.226;2023-11-22T04:59:41;40.20;34.89;49.35;;
43938;Laerm;71382;47.750;10.226;2023-11-22T05:02:06;40.85;32.78;50.53;;
43938;Laerm;71382;47.750;10.226;2023-11-22T05:04:32;41.23;32.24;52.38;;
43938;Laerm;71382;47.750;10.226;2023-11-22T05:06:58;40.27;34.53;53.23;;
43938;Laerm;71382;47.750;10.226;2023-11-22T05:09:24;42.48;33.18;53.35;;
43938;Laerm;71382;47.750;10.226;2023-11-22T05:11:49;41.91;31.46;54.24;;
43938;Laerm;71382;47.750;10.226;2023-11-22T05:14:15;38.46;31.38;52.79;;
43938;Laerm;71382;47.750;10.226;2023-11-22T05:16:40;55.34;18.00;71.46;;
43938;Laerm;71382;47.750;10.226;2023-11-22T05:19:06;74.62;-330.33;93.70;;
43938;Laerm;71382;47.750;10.226;2023-11-22T05:21:32;70.00;-326.07;93.70;;
43938;Laerm;71382;47.750;10.226;2023-11-22T05:23:57;5.00;5.00;5.00;;
43938;Laerm;71382;47.750;10.226;2023-11-22T05:26:23;83.68;-332.88;93.70;;
43938;Laerm;71382;47.750;10.226;2023-11-22T05:28:49;5.00;5.00;5.00;;
43938;Laerm;71382;47.750;10.226;2023-11-22T05:31:14;5.00;5.00;5.00;;
43938;Laerm;71382;47.750;10.226;2023-11-22T05:33:40;63.17;5.00;90.70;;
43938;Laerm;71382;47.750;10.226;2023-11-22T05:36:06;63.12;-323.53;90.66;;
43938;Laerm;71382;47.750;10.226;2023-11-22T05:38:32;5.00;5.00;5.00;;
43938;Laerm;71382;47.750;10.226;2023-11-22T05:41:00;5.00;5.00;5.00;;
43938;Laerm;71382;47.750;10.226;2023-11-22T05:43:26;81.28;-328.41;93.70;;
43938;Laerm;71382;47.750;10.226;2023-11-22T05:45:52;67.96;-325.72;93.63;;
43938;Laerm;71382;47.750;10.226;2023-11-22T05:48:18;60.01;56.86;63.55;;
43938;Laerm;71382;47.750;10.226;2023-11-22T05:50:45;60.90;50.89;64.01;;
43938;Laerm;71382;47.750;10.226;2023-11-22T05:53:11;54.50;50.39;57.94;;
43938;Laerm;71382;47.750;10.226;2023-11-22T05:55:36;53.28;48.52;58.64;;
43938;Laerm;71382;47.750;10.226;2023-11-22T05:58:03;52.72;47.54;57.95;;
43938;Laerm;71382;47.750;10.226;2023-11-22T06:00:29;71.54;-325.72;93.69;;
43938;Laerm;71382;47.750;10.226;2023-11-22T06:02:54;65.67;-326.65;90.64;;
43938;Laerm;71382;47.750;10.226;2023-11-22T06:05:21;62.15;-51.75;90.68;;
43938;Laerm;71382;47.750;10.226;2023-11-22T06:07:46;58.61;49.32;67.20;;
43938;Laerm;71382;47.750;10.226;2023-11-22T06:10:13;61.02;49.24;65.94;;
43938;Laerm;71382;47.750;10.226;2023-11-22T06:12:40;60.35;51.87;65.00;;
43938;Laerm;71382;47.750;10.226;2023-11-22T06:15:05;55.32;47.52;63.11;;
43938;Laerm;71382;47.750;10.226;2023-11-22T06:17:31;52.18;-125.65;58.13;;
43938;Laerm;71382;47.750;10.226;2023-11-22T06:19:57;57.81;35.44;70.92;;
43938;Laerm;71382;47.750;10.226;2023-11-22T06:22:22;51.39;33.56;60.61;;
43938;Laerm;71382;47.750;10.226;2023-11-22T06:24:48;60.19;37.00;66.58;;
43938;Laerm;71382;47.750;10.226;2023-11-22T06:27:14;63.70;60.68;72.17;;
43938;Laerm;71382;47.750;10.226;2023-11-22T06:29:41;60.65;39.19;66.48;;
43938;Laerm;71382;47.750;10.226;2023-11-22T06:32:08;62.34;36.33;66.46;;
43938;Laerm;71382;47.750;10.226;2023-11-22T06:34:34;62.65;60.42;65.64;;
43938;Laerm;71382;47.750;10.226;2023-11-22T06:37:01;62.23;42.93;66.72;;
43938;Laerm;71382;47.750;10.226;2023-11-22T06:39:27;62.17;60.51;66.00;;
43938;Laerm;71382;47.750;10.226;2023-11-22T06:41:52;61.84;60.61;64.33;;
43938;Laerm;71382;47.750;10.226;2023-11-22T06:44:18;61.55;60.43;66.15;;
43938;Laerm;71382;47.750;10.226;2023-11-22T06:46:44;61.32;40.32;71.59;;
43938;Laerm;71382;47.750;10.226;2023-11-22T06:49:09;64.76;-323.34;90.69;;
43938;Laerm;71382;47.750;10.226;2023-11-22T06:51:35;58.64;34.41;72.11;;
43938;Laerm;71382;47.750;10.226;2023-11-22T06:54:00;64.31;-17.07;72.50;;
43938;Laerm;71382;47.750;10.226;2023-11-22T06:56:26;62.26;60.49;68.04;;
43938;Laerm;71382;47.750;10.226;2023-11-22T06:58:51;63.60;45.00;66.70;;
43938;Laerm;71382;47.750;10.226;2023-11-22T07:01:17;57.99;34.79;66.45;;
43938;Laerm;71382;47.750;10.226;2023-11-22T07:03:43;49.78;34.42;59.64;;
43938;Laerm;71382;47.750;10.226;2023-11-22T07:06:09;55.56;34.37;66.63;;
43938;Laerm;71382;47.750;10.226;2023-11-22T07:08:35;60.02;34.04;66.55;;
43938;Laerm;71382;47.750;10.226;2023-11-22T07:11:01;58.21;31.38;66.13;;
43938;Laerm;71382;47.750;10.226;2023-11-22T07:13:29;55.79;32.52;62.05;;
43938;Laerm;71382;47.750;10.226;2023-11-22T07:15:54;59.91;53.91;62.57;;
43938;Laerm;71382;47.750;10.226;2023-11-22T07:18:20;59.91;55.65;62.39;;
43938;Laerm;71382;47.750;10.226;2023-11-22T07:20:49;60.03;54.97;62.69;;
43938;Laerm;71382;47.750;10.226;2023-11-22T07:23:15;60.26;56.07;66.15;;
43938;Laerm;71382;47.750;10.226;2023-11-22T07:25:41;60.29;55.88;62.53;;
43938;Laerm;71382;47.750;10.226;2023-11-22T07:28:07;60.23;57.39;61.61;;
43938;Laerm;71382;47.750;10.226;2023-11-22T07:30:32;60.08;58.15;61.38;;
43938;Laerm;71382;47.750;10.226;2023-11-22T07:32:58;59.96;55.65;61.77;;
43938;Laerm;71382;47.750;10.226;2023-11-22T07:35:24;60.38;55.42;64.06;;
43938;Laerm;71382;47.750;10.226;2023-11-22T07:37:53;60.38;56.56;62.88;;
43938;Laerm;71382;47.750;10.226;2023-11-22T07:40:20;60.24;57.90;63.77;;
43938;Laerm;71382;47.750;10.226;2023-11-22T07:42:47;60.07;57.03;61.73;;
43938;Laerm;71382;47.750;10.226;2023-11-22T07:45:13;60.06;55.80;63.04;;
43938;Laerm;71382;47.750;10.226;2023-11-22T07:47:39;60.10;58.14;61.46;;
43938;Laerm;71382;47.750;10.226;2023-11-22T07:50:09;60.00;57.93;61.65;;
43938;Laerm;71382;47.750;10.226;2023-11-22T07:52:34;59.91;56.61;62.24;;
43938;Laerm;71382;47.750;10.226;2023-11-22T07:55:00;59.82;54.30;61.77;;
43938;Laerm;71382;47.750;10.226;2023-11-22T07:57:25;59.88;54.31;61.47;;
43938;Laerm;71382;47.750;10.226;2023-11-22T07:59:51;60.00;56.87;61.47;;
43938;Laerm;71382;47.750;10.226;2023-11-22T08:02:21;59.91;56.84;61.53;;
43938;Laerm;71382;47.750;10.226;2023-11-22T08:04:47;59.68;56.01;61.43;;
43938;Laerm;71382;47.750;10.226;2023-11-22T08:07:13;60.11;57.68;61.53;;
43938;Laerm;71382;47.750;10.226;2023-11-22T08:09:42;60.20;58.18;61.66;;
43938;Laerm;71382;47.750;10.226;2023-11-22T08:12:08;60.21;56.59;61.68;;
43938;Laerm;71382;47.750;10.226;2023-11-22T08:14:37;59.82;55.75;62.05;;
43938;Laerm;71382;47.750;10.226;2023-11-22T08:17:03;60.04;53.89;61.54;;
43938;Laerm;71382;47.750;10.226;2023-11-22T08:19:29;60.04;56.91;65.65;;
43938;Laerm;71382;47.750;10.226;2023-11-22T08:21:55;60.07;57.36;64.14;;
43938;Laerm;71382;47.750;10.226;2023-11-22T08:24:20;59.98;49.23;62.22;;
43938;Laerm;71382;47.750;10.226;2023-11-22T08:26:46;59.84;54.06;66.25;;
43938;Laerm;71382;47.750;10.226;2023-11-22T08:29:11;59.83;53.05;62.21;;
43938;Laerm;71382;47.750;10.226;2023-11-22T08:31:40;59.89;55.98;61.76;;
43938;Laerm;71382;47.750;10.226;2023-11-22T08:34:05;59.76;56.73;61.84;;
43938;Laerm;71382;47.750;10.226;2023-11-22T08:36:35;59.58;53.79;61.80;;
43938;Laerm;71382;47.750;10.226;2023-11-22T08:39:01;59.72;53.32;61.84;;
43938;Laerm;71382;47.750;10.226;2023-11-22T08:41:30;60.01;56.26;61.88;;
43938;Laerm;71382;47.750;10.226;2023-11-22T08:43:56;60.26;53.42;64.46;;
43938;Laerm;71382;47.750;10.226;2023-11-22T08:46:22;60.17;55.79;63.40;;
43938;Laerm;71382;47.750;10.226;2023-11-22T08:48:48;60.23;57.49;63.26;;
43938;Laerm;71382;47.750;10.226;2023-11-22T08:51:14;59.96;48.86;61.90;;
43938;Laerm;71382;47.750;10.226;2023-11-22T08:53:40;59.75;48.93;61.95;;
43938;Laerm;71382;47.750;10.226;2023-11-22T08:56:06;59.70;25.04;61.74;;
43938;Laerm;71382;47.750;10.226;2023-11-22T08:58:34;59.61;46.80;62.17;;
43938;Laerm;71382;47.750;10.226;2023-11-22T09:00:59;59.22;34.29;66.24;;
43938;Laerm;71382;47.750;10.226;2023-11-22T09:03:25;66.64;-32.33;72.72;;
43938;Laerm;71382;47.750;10.226;2023-11-22T09:05:52;43.68;-326.65;65.22;;
43938;Laerm;71382;47.750;10.226;2023-11-22T09:08:19;59.80;47.75;62.17;;
43938;Laerm;71382;47.750;10.226;2023-11-22T09:10:46;58.35;35.90;61.84;;
43938;Laerm;71382;47.750;10.226;2023-11-22T09:13:12;67.09;35.27;72.73;;
43938;Laerm;71382;47.750;10.226;2023-11-22T09:15:42;67.32;60.54;72.63;;
43938;Laerm;71382;47.750;10.226;2023-11-22T09:18:10;61.79;24.56;72.39;;
43938;Laerm;71382;47.750;10.226;2023-11-22T09:20:35;57.48;52.26;63.06;;
43938;Laerm;71382;47.750;10.226;2023-11-22T09:23:01;56.59;53.77;66.35;;
43938;Laerm;71382;47.750;10.226;2023-11-22T09:25:30;58.19;54.64;68.18;;
43938;Laerm;71382;47.750;10.226;2023-11-22T09:27:56;59.45;31.16;61.67;;
43938;Laerm;71382;47.750;10.226;2023-11-22T09:30:25;59.99;38.09;70.16;;
43938;Laerm;71382;47.750;10.226;2023-11-22T09:33:23;59.51;53.13;61.33;;
43938;Laerm;71382;47.750;10.226;2023-11-22T09:35:48;59.62;57.31;61.40;;
43938;Laerm;71382;47.750;10.226;2023-11-22T09:38:14;59.02;55.09;62.60;;
43938;Laerm;71382;47.750;10.226;2023-11-22T09:40:41;59.40;53.12;61.35;;
43938;Laerm;71382;47.750;10.226;2023-11-22T09:43:07;59.50;53.33;61.66;;
43938;Laerm;71382;47.750;10.226;2023-11-22T09:45:33;59.80;55.67;61.84;;
43938;Laerm;71382;47.750;10.226;2023-11-22T09:47:59;59.87;57.04;62.05;;
43938;Laerm;71382;47.750;10.226;2023-11-22T09:52:51;59.72;56.17;62.89;;
43938;Laerm;71382;47.750;10.226;2023-11-22T09:55:19;59.95;56.14;67.32;;
43938;Laerm;71382;47.750;10.226;2023-11-22T09:57:45;59.56;55.48;61.58;;
43938;Laerm;71382;47.750;10.226;2023-11-22T10:00:11;59.84;55.10;61.94;;
43938;Laerm;71382;47.750;10.226;2023-11-22T10:02:40;59.95;57.37;62.99;;
43938;Laerm;71382;47.750;10.226;2023-11-22T10:05:06;59.73;56.20;61.82;;
43938;Laerm;71382;47.750;10.226;2023-11-22T10:07:34;60.12;52.48;62.25;;
43938;Laerm;71382;47.750;10.226;2023-11-22T10:10:01;60.26;54.41;61.97;;
43938;Laerm;71382;47.750;10.226;2023-11-22T10:12:30;60.16;56.45;62.33;;
43938;Laerm;71382;47.750;10.226;2023-11-22T10:15:10;60.41;54.82;62.11;;
43938;Laerm;71382;47.750;10.226;2023-11-22T10:17:36;59.75;53.91;61.81;;
43938;Laerm;71382;47.750;10.226;2023-11-22T10:20:02;56.37;36.12;63.42;;
43938;Laerm;71382;47.750;10.226;2023-11-22T10:22:28;58.90;33.98;61.97;;
43938;Laerm;71382;47.750;10.226;2023-11-22T10:24:54;60.03;56.29;62.37;;
43938;Laerm;71382;47.750;10.226;2023-11-22T10:27:26;59.24;54.51;62.42;;
43938;Laerm;71382;47.750;10.226;2023-11-22T10:29:51;59.41;35.33;65.45;;
43938;Laerm;71382;47.750;10.226;2023-11-22T10:32:17;56.71;32.84;61.88;;
43938;Laerm;71382;47.750;10.226;2023-11-22T10:34:43;56.95;32.50;61.61;;
43938;Laerm;71382;47.750;10.226;2023-11-22T10:37:08;56.43;33.65;61.74;;
43938;Laerm;71382;47.750;10.226;2023-11-22T10:39:35;56.95;33.20;61.49;;
43938;Laerm;71382;47.750;10.226;2023-11-22T10:42:01;57.03;35.23;61.24;;
43938;Laerm;71382;47.750;10.226;2023-11-22T10:44:30;57.18;40.12;60.95;;
43938;Laerm;71382;47.750;10.226;2023-11-22T10:46:57;57.07;34.51;60.93;;
43938;Laerm;71382;47.750;10.226;2023-11-22T10:49:25;57.32;40.29;60.97;;
43938;Laerm;71382;47.750;10.226;2023-11-22T10:51:51;57.75;44.35;61.37;;
43938;Laerm;71382;47.750;10.226;2023-11-22T10:54:17;56.10;34.61;60.62;;
43938;Laerm;71382;47.750;10.226;2023-11-22T10:56:43;55.88;33.76;60.51;;
43938;Laerm;71382;47.750;10.226;2023-11-22T10:59:14;56.42;34.88;61.17;;
43938;Laerm;71382;47.750;10.226;2023-11-22T11:01:43;56.61;33.92;60.90;;
43938;Laerm;71382;47.750;10.226;2023-11-22T11:07:06;57.36;33.32;61.47;;
43938;Laerm;71382;47.750;10.226;2023-11-22T11:09:35;57.24;34.39;61.40;;
43938;Laerm;71382;47.750;10.226;2023-11-22T11:12:02;57.18;34.94;61.48;;
43938;Laerm;71382;47.750;10.226;2023-11-22T11:14:28;57.54;35.01;61.29;;
43938;Laerm;71382;47.750;10.226;2023-11-22T11:16:54;57.40;34.22;61.20;;
43938;Laerm;71382;47.750;10.226;2023-11-22T11:19:23;56.66;35.76;60.71;;
43938;Laerm;71382;47.750;10.226;2023-11-22T11:21:50;57.94;34.52;61.43;;
43938;Laerm;71382;47.750;10.226;2023-11-22T11:24:16;58.03;43.75;61.59;;
43938;Laerm;71382;47.750;10.226;2023-11-22T11:26:49;55.76;34.72;61.72;;
43938;Laerm;71382;47.750;10.226;2023-11-22T11:29:33;55.91;33.90;61.28;;
43938;Laerm;71382;47.750;10.226;2023-11-22T11:31:59;59.19;34.90;61.68;;
43938;Laerm;71382;47.750;10.226;2023-11-22T11:34:27;59.73;50.41;61.76;;
43938;Laerm;71382;47.750;10.226;2023-11-22T11:36:54;58.79;33.68;61.67;;
43938;Laerm;71382;47.750;10.226;2023-11-22T11:39:24;59.94;54.76;61.95;;
43938;Laerm;71382;47.750;10.226;2023-11-22T11:41:51;59.65;52.36;61.85;;
43938;Laerm;71382;47.750;10.226;2023-11-22T11:44:17;59.34;54.96;61.46;;
43938;Laerm;71382;47.750;10.226;2023-11-22T11:46:45;59.45;55.19;61.75;;
43938;Laerm;71382;47.750;10.226;2023-11-22T11:49:14;59.64;56.63;61.82;;
43938;Laerm;71382;47.750;10.226;2023-11-22T11:51:40;59.68;55.04;62.52;;
43938;Laerm;71382;47.750;10.226;2023-11-22T11:54:06;59.50;55.37;62.20;;
43938;Laerm;71382;47.750;10.226;2023-11-22T11:56:33;59.47;55.01;67.17;;
43938;Laerm;71382;47.750;10.226;2023-11-22T11:58:58;59.02;51.44;62.21;;
43938;Laerm;71382;47.750;10.226;2023-11-22T12:01:26;58.00;33.97;61.38;;
43938;Laerm;71382;47.750;10.226;2023-11-22T12:03:52;58.27;44.45;63.96;;
43938;Laerm;71382;47.750;10.226;2023-11-22T12:06:18;57.89;47.05;61.02;;
43938;Laerm;71382;47.750;10.226;2023-11-22T12:08:44;58.51;52.02;61.08;;
43938;Laerm;71382;47.750;10.226;2023-11-22T12:11:10;58.55;48.72;61.57;;
43938;Laerm;71382;47.750;10.226;2023-11-22T12:13:36;58.48;49.77;61.32;;
43938;Laerm;71382;47.750;10.226;2023-11-22T12:16:08;58.55;50.62;62.93;;
43938;Laerm;71382;47.750;10.226;2023-11-22T12:18:54;58.88;52.40;61.42;;
43938;Laerm;71382;47.750;10.226;2023-11-22T12:21:20;58.64;41.85;61.57;;
43938;Laerm;71382;47.750;10.226;2023-11-22T12:23:46;58.29;48.92;61.52;;
43938;Laerm;71382;47.750;10.226;2023-11-22T12:26:12;58.14;48.85;61.02;;
43938;Laerm;71382;47.750;10.226;2023-11-22T12:28:39;58.86;50.26;61.16;;
43938;Laerm;71382;47.750;10.226;2023-11-22T12:31:09;58.57;51.44;61.23;;
43938;Laerm;71382;47.750;10.226;2023-11-22T12:33:35;55.50;34.55;61.13;;
43938;Laerm;71382;47.750;10.226;2023-11-22T12:36:02;54.52;34.80;60.86;;
43938;Laerm;71382;47.750;10.226;2023-11-22T12:38:29;54.65;35.75;60.35;;
43938;Laerm;71382;47.750;10.226;2023-11-22T12:40:58;55.36;36.02;62.30;;
43938;Laerm;71382;47.750;10.226;2023-11-22T12:43:23;54.78;35.51;60.36;;
43938;Laerm;71382;47.750;10.226;2023-11-22T12:48:27;55.22;34.46;61.27;;
43938;Laerm;71382;47.750;10.226;2023-11-22T12:50:55;56.48;35.32;61.20;;
43938;Laerm;71382;47.750;10.226;2023-11-22T12:53:22;55.62;35.95;60.75;;
43938;Laerm;71382;47.750;10.226;2023-11-22T12:55:48;57.81;44.15;61.04;;
43938;Laerm;71382;47.750;10.226;2023-11-22T12:58:18;57.41;35.12;65.18;;
43938;Laerm;71382;47.750;10.226;2023-11-22T13:00:47;56.97;34.32;61.17;;
43938;Laerm;71382;47.750;10.226;2023-11-22T13:03:13;58.24;33.15;63.30;;
43938;Laerm;71382;47.750;10.226;2023-11-22T13:05:39;59.39;33.05;62.01;;
43938;Laerm;71382;47.750;10.226;2023-11-22T13:08:08;59.54;44.58;62.00;;
43938;Laerm;71382;47.750;10.226;2023-11-22T13:10:36;58.44;32.95;61.94;;
43938;Laerm;71382;47.750;10.226;2023-11-22T13:13:02;58.69;32.88;62.05;;
43938;Laerm;71382;47.750;10.226;2023-11-22T13:15:27;58.07;33.40;62.11;;
43938;Laerm;71382;47.750;10.226;2023-11-22T13:17:53;58.15;34.38;61.16;;
43938;Laerm;71382;47.750;10.226;2023-11-22T13:20:21;57.70;41.20;60.86;;
43938;Laerm;71382;47.750;10.226;2023-11-22T13:22:48;48.12;41.30;58.89;;
43938;Laerm;71382;47.750;10.226;2023-11-22T13:25:13;46.68;40.98;53.48;;
43938;Laerm;71382;47.750;10.226;2023-11-22T13:27:39;48.14;40.95;60.31;;
43938;Laerm;71382;47.750;10.226;2023-11-22T13:30:06;46.90;40.09;55.74;;
43938;Laerm;71382;47.750;10.226;2023-11-22T13:32:32;52.70;40.79;66.03;;
43938;Laerm;71382;47.750;10.226;2023-11-22T13:34:57;49.71;20.25;62.37;;
43938;Laerm;71382;47.750;10.226;2023-11-22T13:37:24;57.56;53.73;66.79;;